createdAt,value
2023-05-15T00:00:06.744Z,12.99
2023-05-15T00:02:40.117Z,12.92
2023-05-15T00:05:10.944Z,12.84
2023-05-15T00:07:38.864Z,12.86
2023-05-15T00:10:08.961Z,12.82
2023-05-15T00:12:36.906Z,12.73
2023-05-15T00:15:04.650Z,12.85
2023-05-15T00:17:31.943Z,13.08
2023-05-15T00:20:00.566Z,12.99
2023-05-15T00:22:27.881Z,13.01
2023-05-15T00:24:55.188Z,13.04
2023-05-15T00:27:22.472Z,12.95
2023-05-15T00:29:49.734Z,12.89
2023-05-15T00:32:17.003Z,12.85
2023-05-15T00:34:45.166Z,13.03
2023-05-15T00:37:12.630Z,12.89
2023-05-15T00:39:40.374Z,12.93
2023-05-15T00:42:09.253Z,12.98
2023-05-15T00:44:38.414Z,12.93
2023-05-15T00:47:07.398Z,12.87
2023-05-15T00:49:35.879Z,12.76
2023-05-15T00:52:05.619Z,12.85
2023-05-15T00:54:32.904Z,12.65
2023-05-15T00:57:00.984Z,12.63
2023-05-15T00:59:32.920Z,12.63
2023-05-15T01:02:00.298Z,12.65
2023-05-15T01:04:27.675Z,12.70
2023-05-15T01:06:55.073Z,12.58
2023-05-15T01:09:25.669Z,12.63
2023-05-15T01:11:55.250Z,12.73
2023-05-15T01:14:22.700Z,12.68
2023-05-15T01:16:50.507Z,12.79
2023-05-15T01:19:17.982Z,12.79
2023-05-15T01:22:15.585Z,12.63
2023-05-15T01:25:12.035Z,12.72
2023-05-15T01:27:56.920Z,12.80
2023-05-15T01:30:34.531Z,12.78
2023-05-15T01:33:42.995Z,13.01
2023-05-15T01:36:26.955Z,12.87
2023-05-15T01:38:59.723Z,12.86
2023-05-15T01:42:06.673Z,13.07
2023-05-15T01:44:43.311Z,12.85
2023-05-15T01:47:31.148Z,12.83
2023-05-15T01:50:01.982Z,12.91
2023-05-15T01:52:35.446Z,12.84
2023-05-15T01:55:04.679Z,12.92
2023-05-15T01:57:33.304Z,12.91
2023-05-15T02:00:02.800Z,12.85
2023-05-15T02:02:31.817Z,13.02
2023-05-15T02:04:59.769Z,12.68
2023-05-15T02:07:27.489Z,12.68
2023-05-15T02:09:55.832Z,12.80
2023-05-15T02:12:24.210Z,12.74
2023-05-15T02:14:52.708Z,12.75
2023-05-15T02:17:22.904Z,12.75
2023-05-15T02:19:51.366Z,12.62
2023-05-15T02:22:18.523Z,12.66
2023-05-15T02:24:45.961Z,12.68
2023-05-15T02:27:28.875Z,12.81
2023-05-15T02:30:33.098Z,12.80
2023-05-15T02:33:42.828Z,12.74
2023-05-15T02:36:19.814Z,12.87
2023-05-15T02:38:54.213Z,12.89
2023-05-15T02:41:23.081Z,12.96
2023-05-15T02:43:53.105Z,13.00
2023-05-15T02:46:22.313Z,13.07
2023-05-15T02:48:50.718Z,13.08
2023-05-15T02:51:18.206Z,13.03
2023-05-15T02:53:45.484Z,13.01
2023-05-15T02:56:12.757Z,12.86
2023-05-15T02:58:40.487Z,12.71
2023-05-15T03:01:08.024Z,12.65
2023-05-15T03:03:35.415Z,12.58
2023-05-15T03:06:02.872Z,12.61
2023-05-15T03:08:30.418Z,12.55
2023-05-15T03:13:25.114Z,12.45
2023-05-15T03:15:53.421Z,12.44
2023-05-15T03:18:20.793Z,12.50
2023-05-15T03:20:49.313Z,12.72
2023-05-15T03:23:16.520Z,12.62
2023-05-15T03:25:43.786Z,12.81
2023-05-15T03:28:11.676Z,12.76
2023-05-15T03:30:39.015Z,12.70
2023-05-15T03:33:06.770Z,12.73
2023-05-15T03:35:34.183Z,12.77
2023-05-15T03:38:02.382Z,12.68
2023-05-15T03:40:29.687Z,12.57
2023-05-15T03:42:58.410Z,12.42
2023-05-15T03:45:26.197Z,12.59
2023-05-15T03:47:53.643Z,12.79
2023-05-15T03:50:21.106Z,12.85
2023-05-15T03:52:48.458Z,12.84
2023-05-15T03:55:15.843Z,12.80
2023-05-15T03:57:43.143Z,12.84
2023-05-15T04:00:11.207Z,12.87
2023-05-15T04:02:41.508Z,12.67
2023-05-15T04:05:09.935Z,12.80
2023-05-15T04:07:38.097Z,12.86
2023-05-15T04:10:06.136Z,13.04
2023-05-15T04:12:35.582Z,13.15
2023-05-15T04:15:20.270Z,13.23
2023-05-15T04:17:50.373Z,13.25
2023-05-15T04:20:21.034Z,13.26
2023-05-15T04:22:48.902Z,13.29
2023-05-15T04:25:16.558Z,13.30
2023-05-15T04:27:44.789Z,13.41
2023-05-15T04:30:13.176Z,13.37
2023-05-15T04:32:41.176Z,13.37
2023-05-15T04:35:10.641Z,13.14
2023-05-15T04:37:42.301Z,13.14
2023-05-15T04:40:10.506Z,13.17
2023-05-15T04:42:39.497Z,13.12
2023-05-15T04:45:08.108Z,13.23
2023-05-15T04:47:36.141Z,13.22
2023-05-15T04:50:04.049Z,13.25
2023-05-15T04:52:32.440Z,13.29
2023-05-15T04:54:59.862Z,13.44
2023-05-15T04:57:27.637Z,13.32
2023-05-15T04:59:55.010Z,13.39
2023-05-15T05:02:23.812Z,13.20
2023-05-15T05:04:51.720Z,13.25
2023-05-15T05:07:19.419Z,13.33
2023-05-15T05:09:46.820Z,13.50
2023-05-15T05:12:14.672Z,13.41
2023-05-15T05:14:42.523Z,13.50
2023-05-15T05:17:10.104Z,13.53
2023-05-15T05:19:37.423Z,13.54
2023-05-15T05:22:05.982Z,13.63
2023-05-15T05:24:35.891Z,13.78
2023-05-15T05:27:04.135Z,13.64
2023-05-15T05:29:32.406Z,13.60
2023-05-15T05:31:59.995Z,13.76
2023-05-15T05:34:27.410Z,13.80
2023-05-15T05:36:54.788Z,14.16
2023-05-15T05:39:22.069Z,14.01
2023-05-15T05:41:49.472Z,13.87
2023-05-15T05:44:16.876Z,13.99
2023-05-15T05:46:45.541Z,13.84
2023-05-15T05:49:12.861Z,13.88
2023-05-15T05:51:40.186Z,13.92
2023-05-15T05:54:07.451Z,14.16
2023-05-15T05:56:34.790Z,13.92
2023-05-15T05:59:02.383Z,13.71
2023-05-15T06:01:29.832Z,13.61
2023-05-15T06:03:57.675Z,13.61
2023-05-15T06:06:25.176Z,13.41
2023-05-15T06:08:54.264Z,13.42
2023-05-15T06:11:25.319Z,13.41
2023-05-15T06:13:53.132Z,13.45
2023-05-15T06:16:21.752Z,13.51
2023-05-15T06:18:49.114Z,13.61
2023-05-15T06:21:16.477Z,13.54
2023-05-15T06:23:43.804Z,13.67
2023-05-15T06:26:11.271Z,13.75
2023-05-15T06:28:38.513Z,13.80
2023-05-15T06:31:06.297Z,13.77
2023-05-15T06:33:33.606Z,13.87
2023-05-15T06:36:00.959Z,13.92
2023-05-15T06:38:28.269Z,13.92
2023-05-15T06:40:55.985Z,14.11
2023-05-15T06:43:23.230Z,14.12
2023-05-15T06:45:50.867Z,14.16
2023-05-15T06:48:18.208Z,14.28
2023-05-15T06:50:45.616Z,14.37
2023-05-15T06:53:14.525Z,14.44
2023-05-15T06:55:41.889Z,14.45
2023-05-15T06:58:09.148Z,14.46
2023-05-15T07:00:36.428Z,14.50
2023-05-15T07:03:04.065Z,14.54
2023-05-15T07:05:31.396Z,14.38
2023-05-15T07:07:58.690Z,14.56
2023-05-15T07:10:26.456Z,14.76
2023-05-15T07:12:53.997Z,14.89
2023-05-15T07:15:21.318Z,15.05
2023-05-15T07:17:48.716Z,15.33
2023-05-15T07:20:16.051Z,14.96
2023-05-15T07:22:55.130Z,15.07
2023-05-15T07:25:25.464Z,14.98
2023-05-15T07:27:53.484Z,14.71
2023-05-15T07:30:21.090Z,14.74
2023-05-15T07:32:48.614Z,14.46
2023-05-15T07:35:16.305Z,14.48
2023-05-15T07:37:43.616Z,14.58
2023-05-15T07:40:11.297Z,14.51
2023-05-15T07:42:39.955Z,14.40
2023-05-15T07:45:08.307Z,14.41
2023-05-15T07:47:36.382Z,14.50
2023-05-15T07:50:04.098Z,14.52
2023-05-15T07:52:31.525Z,14.64
2023-05-15T07:54:59.203Z,15.00
2023-05-15T07:57:26.743Z,15.22
2023-05-15T07:59:54.034Z,15.07
2023-05-15T08:02:21.419Z,15.06
2023-05-15T08:04:48.929Z,14.97
2023-05-15T08:07:16.650Z,15.18
2023-05-15T08:09:44.042Z,14.95
2023-05-15T08:12:22.101Z,15.08
2023-05-15T08:14:54.655Z,15.20
2023-05-15T08:17:23.165Z,15.39
2023-05-15T08:19:50.742Z,15.62
2023-05-15T08:22:18.172Z,15.82
2023-05-15T08:24:45.819Z,15.97
2023-05-15T08:27:13.339Z,16.10
2023-05-15T08:29:40.684Z,16.42
2023-05-15T08:32:09.561Z,15.64
2023-05-15T08:34:37.131Z,16.03
2023-05-15T08:37:06.322Z,16.53
2023-05-15T08:39:33.949Z,17.06
2023-05-15T08:42:28.429Z,16.64
2023-05-15T08:44:56.617Z,16.48
2023-05-15T08:47:25.525Z,16.55
2023-05-15T08:50:15.556Z,16.73
2023-05-15T08:52:45.748Z,16.30
2023-05-15T08:55:15.471Z,16.23
2023-05-15T08:57:44.237Z,15.90
2023-05-15T09:00:14.897Z,16.16
2023-05-15T09:02:43.327Z,16.18
2023-05-15T09:05:11.415Z,16.06
2023-05-15T09:07:45.110Z,15.90
2023-05-15T09:10:14.387Z,16.04
2023-05-15T09:12:45.450Z,16.17
2023-05-15T09:15:18.870Z,15.90
2023-05-15T09:17:46.594Z,15.70
2023-05-15T09:20:32.566Z,15.91
2023-05-15T09:23:02.924Z,15.69
2023-05-15T09:25:40.166Z,15.47
2023-05-15T09:28:10.755Z,15.28
2023-05-15T09:30:44.597Z,15.42
2023-05-15T09:33:12.735Z,15.74
2023-05-15T09:35:41.058Z,15.75
2023-05-15T09:38:13.158Z,15.72
2023-05-15T09:40:41.123Z,15.82
2023-05-15T09:43:13.375Z,16.07
2023-05-15T09:45:40.718Z,16.03
2023-05-15T09:48:08.812Z,16.25
2023-05-15T09:50:38.726Z,16.59
2023-05-15T09:53:06.611Z,17.07
2023-05-15T09:55:37.265Z,16.84
2023-05-15T09:58:16.480Z,16.63
2023-05-15T10:00:48.394Z,16.80
2023-05-15T10:03:21.030Z,17.91
2023-05-15T10:05:48.693Z,18.44
2023-05-15T10:08:26.158Z,18.76
2023-05-15T10:10:54.612Z,18.68
2023-05-15T10:13:23.656Z,18.63
2023-05-15T10:15:52.945Z,17.64
2023-05-15T10:18:26.371Z,17.14
2023-05-15T10:20:54.524Z,17.32
2023-05-15T10:23:22.519Z,17.41
2023-05-15T10:26:03.272Z,17.07
2023-05-15T10:28:32.087Z,16.90
2023-05-15T10:31:03.398Z,17.07
2023-05-15T10:33:31.675Z,17.16
2023-05-15T10:36:00.095Z,16.54
2023-05-15T10:38:29.266Z,16.60
2023-05-15T10:41:13.102Z,16.25
2023-05-15T10:43:44.515Z,16.48
2023-05-15T10:46:12.273Z,16.27
2023-05-15T10:48:40.416Z,16.73
2023-05-15T10:51:17.060Z,16.92
2023-05-15T10:53:46.117Z,17.35
2023-05-15T10:56:17.325Z,17.18
2023-05-15T10:58:49.622Z,17.30
2023-05-15T11:01:35.348Z,16.89
2023-05-15T11:04:15.333Z,16.96
2023-05-15T11:06:50.803Z,17.17
2023-05-15T11:09:28.789Z,17.08
2023-05-15T11:12:01.818Z,17.43
2023-05-15T11:14:43.698Z,17.54
2023-05-15T11:17:13.017Z,17.58
2023-05-15T11:19:49.332Z,17.85
2023-05-15T11:22:27.925Z,17.90
2023-05-15T11:25:16.728Z,17.93
2023-05-15T11:27:46.477Z,18.32
2023-05-15T11:30:22.531Z,18.87
2023-05-15T11:32:58.885Z,19.26
2023-05-15T11:35:47.858Z,19.83
2023-05-15T11:38:18.131Z,19.48
2023-05-15T11:40:52.575Z,19.75
2023-05-15T11:43:25.798Z,19.75
2023-05-15T11:46:04.361Z,20.73
2023-05-15T11:48:37.792Z,20.61
2023-05-15T11:51:06.108Z,20.44
2023-05-15T11:53:34.164Z,20.38
2023-05-15T11:56:01.561Z,19.83
2023-05-15T11:58:28.842Z,19.62
2023-05-15T12:00:57.771Z,19.35
2023-05-15T12:03:32.470Z,19.31
2023-05-15T12:06:02.949Z,19.30
2023-05-15T12:08:36.303Z,19.32
2023-05-15T12:11:05.092Z,19.12
2023-05-15T12:13:33.456Z,19.62
2023-05-15T12:16:03.660Z,19.81
2023-05-15T12:18:34.741Z,19.52
2023-05-15T12:21:02.215Z,19.74
2023-05-15T12:23:29.432Z,19.96
2023-05-15T12:26:02.753Z,20.70
2023-05-15T12:28:33.447Z,20.71
2023-05-15T12:31:00.872Z,20.63
2023-05-15T12:33:28.464Z,20.70
2023-05-15T12:36:00.242Z,21.05
2023-05-15T12:38:29.011Z,20.89
2023-05-15T12:40:57.411Z,20.85
2023-05-15T12:43:26.209Z,21.07
2023-05-15T12:45:55.823Z,20.89
2023-05-15T12:48:23.598Z,20.61
2023-05-15T12:50:51.636Z,20.49
2023-05-15T12:53:21.516Z,20.95
2023-05-15T12:55:49.034Z,21.72
2023-05-15T12:58:18.841Z,22.03
2023-05-15T13:00:47.944Z,21.98
2023-05-15T13:03:15.795Z,21.07
2023-05-15T13:05:45.523Z,20.19
2023-05-15T13:08:18.668Z,19.83
2023-05-15T13:10:47.514Z,20.24
2023-05-15T13:13:16.652Z,20.16
2023-05-15T13:15:45.177Z,19.80
2023-05-15T13:18:18.570Z,18.98
2023-05-15T13:20:48.925Z,18.45
2023-05-15T13:23:23.539Z,17.97
2023-05-15T13:25:50.935Z,17.85
2023-05-15T13:28:18.244Z,18.12
2023-05-15T13:30:46.153Z,18.71
2023-05-15T13:33:13.675Z,18.91
2023-05-15T13:35:43.179Z,18.86
2023-05-15T13:38:11.917Z,19.20
2023-05-15T13:40:39.886Z,19.11
2023-05-15T13:43:07.406Z,19.13
2023-05-15T13:45:35.333Z,19.04
2023-05-15T13:48:03.193Z,19.44
2023-05-15T13:50:30.664Z,19.25
2023-05-15T13:52:57.968Z,19.28
2023-05-15T13:55:26.188Z,19.78
2023-05-15T13:57:53.679Z,20.28
2023-05-15T14:00:21.742Z,20.20
2023-05-15T14:02:49.134Z,19.72
2023-05-15T14:05:18.470Z,19.59
2023-05-15T14:07:46.087Z,19.38
2023-05-15T14:10:13.357Z,19.45
2023-05-15T14:12:40.811Z,19.12
2023-05-15T14:15:08.900Z,19.46
2023-05-15T14:17:36.177Z,19.68
2023-05-15T14:20:05.200Z,19.79
2023-05-15T14:22:32.910Z,20.12
2023-05-15T14:25:00.492Z,20.18
2023-05-15T14:27:27.936Z,20.07
2023-05-15T14:29:56.889Z,19.57
2023-05-15T14:32:25.031Z,19.12
2023-05-15T14:34:52.472Z,18.83
2023-05-15T14:37:19.960Z,18.67
2023-05-15T14:39:47.304Z,18.51
2023-05-15T14:42:14.630Z,18.20
2023-05-15T14:44:41.947Z,18.31
2023-05-15T14:47:16.881Z,17.87
2023-05-15T14:49:44.231Z,17.59
2023-05-15T14:52:12.420Z,17.65
2023-05-15T14:54:40.350Z,17.74
2023-05-15T14:57:08.310Z,18.19
2023-05-15T15:02:03.307Z,18.53
2023-05-15T15:04:34.421Z,18.86
2023-05-15T15:07:05.358Z,19.34
2023-05-15T15:09:32.665Z,18.92
2023-05-15T15:12:00.155Z,18.40
2023-05-15T15:14:27.546Z,18.57
2023-05-15T15:16:54.874Z,18.78
2023-05-15T15:19:22.198Z,18.85
2023-05-15T15:21:49.608Z,18.59
2023-05-15T15:24:17.272Z,18.49
2023-05-15T15:26:44.589Z,18.64
2023-05-15T15:29:11.935Z,18.50
2023-05-15T15:31:39.405Z,18.56
2023-05-15T15:34:09.162Z,18.63
2023-05-15T15:36:38.699Z,18.60
2023-05-15T15:39:06.189Z,18.82
2023-05-15T15:41:33.560Z,18.65
2023-05-15T15:44:02.381Z,18.42
2023-05-15T15:46:29.698Z,18.49
2023-05-15T15:48:57.048Z,18.31
2023-05-15T15:51:24.313Z,17.80
2023-05-15T15:53:51.595Z,17.62
2023-05-15T15:56:19.023Z,17.61
2023-05-15T15:58:46.496Z,17.66
2023-05-15T16:01:13.956Z,17.37
2023-05-15T16:03:41.318Z,17.25
2023-05-15T16:06:08.896Z,17.02
2023-05-15T16:08:36.247Z,16.92
2023-05-15T16:11:03.559Z,17.14
2023-05-15T16:13:30.997Z,17.15
2023-05-15T16:15:58.512Z,17.13
2023-05-15T16:18:26.258Z,16.95
2023-05-15T16:20:53.829Z,16.79
2023-05-15T16:23:21.340Z,16.56
2023-05-15T16:25:48.926Z,16.73
2023-05-15T16:28:16.469Z,16.50
2023-05-15T16:30:49.358Z,16.49
2023-05-15T16:33:18.457Z,16.53
2023-05-15T16:35:46.678Z,16.55
2023-05-15T16:38:14.729Z,16.48
2023-05-15T16:40:42.125Z,16.65
2023-05-15T16:43:09.507Z,16.69
2023-05-15T16:45:36.907Z,16.50
2023-05-15T16:48:04.646Z,16.47
2023-05-15T16:50:33.147Z,16.43
2023-05-15T16:53:00.763Z,16.33
2023-05-15T16:55:28.392Z,16.56
2023-05-15T16:57:55.799Z,16.98
2023-05-15T17:00:23.227Z,16.87
2023-05-15T17:02:50.990Z,16.87
2023-05-15T17:05:18.339Z,16.67
2023-05-15T17:07:45.666Z,16.53
2023-05-15T17:10:13.935Z,16.34
2023-05-15T17:12:41.491Z,16.17
2023-05-15T17:15:09.228Z,16.09
2023-05-15T17:17:36.742Z,16.29
2023-05-15T17:20:05.875Z,16.59
2023-05-15T17:22:33.433Z,16.58
2023-05-15T17:25:01.046Z,16.34
2023-05-15T17:27:28.364Z,16.15
2023-05-15T17:29:56.329Z,15.93
2023-05-15T17:32:24.071Z,16.09
2023-05-15T17:34:51.549Z,15.96
2023-05-15T17:37:18.908Z,16.14
2023-05-15T17:39:46.421Z,16.06
2023-05-15T17:42:13.872Z,15.81
2023-05-15T17:44:41.356Z,15.84
2023-05-15T17:47:10.249Z,15.79
2023-05-15T17:49:39.195Z,15.86
2023-05-15T17:52:07.912Z,15.85
2023-05-15T17:54:35.366Z,15.67
2023-05-15T17:57:02.805Z,15.84
2023-05-15T17:59:31.249Z,15.90
2023-05-15T18:01:58.773Z,15.83
2023-05-15T18:04:26.217Z,15.86
2023-05-15T18:06:53.581Z,15.68
2023-05-15T18:09:23.138Z,15.61
2023-05-15T18:11:51.638Z,15.52
2023-05-15T18:14:19.046Z,15.29
2023-05-15T18:16:46.463Z,15.30
2023-05-15T18:19:13.946Z,15.18
2023-05-15T18:21:41.328Z,15.18
2023-05-15T18:24:08.640Z,14.89
2023-05-15T18:26:35.977Z,14.79
2023-05-15T18:29:03.375Z,14.84
2023-05-15T18:31:30.970Z,14.72
2023-05-15T18:33:58.301Z,14.60
2023-05-15T18:36:26.078Z,14.58
2023-05-15T18:38:53.457Z,14.40
2023-05-15T18:41:21.204Z,14.45
2023-05-15T18:43:48.552Z,14.51
2023-05-15T18:46:15.894Z,14.38
2023-05-15T18:48:43.298Z,14.40
2023-05-15T18:51:12.645Z,14.26
2023-05-15T18:53:40.258Z,14.26
2023-05-15T18:56:07.555Z,14.10
2023-05-15T18:58:35.547Z,14.10
2023-05-15T19:01:03.387Z,14.09
2023-05-15T19:03:30.906Z,14.01
2023-05-15T19:05:58.709Z,13.96
2023-05-15T19:08:26.090Z,14.11
2023-05-15T19:10:53.480Z,14.06
2023-05-15T19:13:21.355Z,13.78
2023-05-15T19:15:54.971Z,13.82
2023-05-15T19:18:22.256Z,13.73
2023-05-15T19:20:54.238Z,13.61
2023-05-15T19:23:21.708Z,13.58
2023-05-15T19:25:49.152Z,13.57
2023-05-15T19:28:16.625Z,13.64
2023-05-15T19:30:44.136Z,13.66
2023-05-15T19:33:13.136Z,13.58
2023-05-15T19:35:40.985Z,13.56
2023-05-15T19:38:08.389Z,13.61
2023-05-15T19:40:36.507Z,13.48
2023-05-15T19:43:04.253Z,13.50
2023-05-15T19:45:31.576Z,13.40
2023-05-15T19:48:00.498Z,13.33
2023-05-15T19:50:28.216Z,13.41
2023-05-15T19:52:56.038Z,13.29
2023-05-15T19:55:23.343Z,13.37
2023-05-15T19:57:55.160Z,13.40
2023-05-15T20:00:22.968Z,13.22
2023-05-15T20:02:50.449Z,13.18
2023-05-15T20:05:18.035Z,13.08
2023-05-15T20:07:45.524Z,13.04
2023-05-15T20:10:14.097Z,12.99
2023-05-15T20:12:41.317Z,12.99
2023-05-15T20:15:09.329Z,12.97
2023-05-15T20:17:36.992Z,12.93
2023-05-15T20:20:09.939Z,12.89
2023-05-15T20:22:38.742Z,12.99
2023-05-15T20:25:06.730Z,12.80
2023-05-15T20:27:34.566Z,12.86
2023-05-15T20:30:03.982Z,12.73
2023-05-15T20:32:32.081Z,12.58
2023-05-15T20:35:00.716Z,12.53
2023-05-15T20:37:29.106Z,12.63
2023-05-15T20:39:57.982Z,12.66
2023-05-15T20:42:27.760Z,12.60
2023-05-15T20:44:55.202Z,12.68
2023-05-15T20:47:23.077Z,12.71
2023-05-15T20:49:50.668Z,12.71
2023-05-15T20:52:18.077Z,12.81
2023-05-15T20:54:45.504Z,12.85
2023-05-15T20:57:12.802Z,12.75
2023-05-15T20:59:40.139Z,12.80
2023-05-15T21:02:07.710Z,12.82
2023-05-15T21:04:36.437Z,12.86
2023-05-15T21:07:04.225Z,12.73
2023-05-15T21:09:31.754Z,12.58
2023-05-15T21:11:59.881Z,12.77
2023-05-15T21:14:27.303Z,12.66
2023-05-15T21:16:54.619Z,12.60
2023-05-15T21:19:22.344Z,12.58
2023-05-15T21:21:49.647Z,12.45
2023-05-15T21:24:17.012Z,12.47
2023-05-15T21:26:44.233Z,12.52
2023-05-15T21:29:11.620Z,12.35
2023-05-15T21:31:38.965Z,12.26
2023-05-15T21:34:06.292Z,12.11
2023-05-15T21:36:34.404Z,11.94
2023-05-15T21:39:01.606Z,11.94
2023-05-15T21:41:28.874Z,11.89
2023-05-15T21:43:56.140Z,11.96
2023-05-15T21:46:23.791Z,12.02
2023-05-15T21:48:51.163Z,12.08
2023-05-15T21:51:18.450Z,12.10
2023-05-15T21:53:45.722Z,12.10
2023-05-15T21:56:13.045Z,12.15
2023-05-15T21:58:40.400Z,12.05
2023-05-15T22:01:07.852Z,11.82
2023-05-15T22:03:35.421Z,11.64
2023-05-15T22:06:02.937Z,11.53
2023-05-15T22:08:30.147Z,11.34
2023-05-15T22:10:57.427Z,11.25
2023-05-15T22:13:24.951Z,11.25
2023-05-15T22:15:52.299Z,11.13
2023-05-15T22:18:19.541Z,11.02
2023-05-15T22:20:48.869Z,10.98
2023-05-15T22:23:16.356Z,10.90
2023-05-15T22:25:43.879Z,10.93
2023-05-15T22:28:11.208Z,11.13
2023-05-15T22:30:38.452Z,11.18
2023-05-15T22:33:06.021Z,11.01
2023-05-15T22:35:33.218Z,10.92
2023-05-15T22:38:00.639Z,10.84
2023-05-15T22:40:28.049Z,10.71
2023-05-15T22:42:55.482Z,10.59
2023-05-15T22:45:22.834Z,10.51
2023-05-15T22:47:51.274Z,10.57
2023-05-15T22:50:18.659Z,10.63
2023-05-15T22:52:46.269Z,10.55
2023-05-15T22:55:13.972Z,10.58
2023-05-15T22:57:41.300Z,10.57
2023-05-15T23:00:09.836Z,10.62
2023-05-15T23:02:38.544Z,10.50
2023-05-15T23:05:06.565Z,10.43
2023-05-15T23:07:34.006Z,10.50
2023-05-15T23:10:01.593Z,10.57
2023-05-15T23:12:29.423Z,10.54
2023-05-15T23:14:56.746Z,10.37
2023-05-15T23:17:25.713Z,10.42
2023-05-15T23:19:53.695Z,10.60
2023-05-15T23:22:21.281Z,10.73
2023-05-15T23:24:48.714Z,10.71
2023-05-15T23:27:15.934Z,10.82
2023-05-15T23:29:43.256Z,10.76
2023-05-15T23:32:10.598Z,10.70
2023-05-15T23:34:37.868Z,10.70
2023-05-15T23:37:05.732Z,10.71
2023-05-15T23:39:32.978Z,10.71
2023-05-15T23:42:00.385Z,10.75
2023-05-15T23:44:27.726Z,10.83
2023-05-15T23:46:55.100Z,10.57
2023-05-15T23:49:22.386Z,10.37
2023-05-15T23:51:50.106Z,10.42
2023-05-15T23:54:17.394Z,10.43
2023-05-15T23:56:44.625Z,10.47
2023-05-15T23:59:11.846Z,10.35
